createdAt,value
2022-12-03T00:01:40.904Z,10.57
2022-12-03T00:04:08.406Z,9.32
2022-12-03T00:06:36.399Z,11.98
2022-12-03T00:09:04.417Z,10.38
2022-12-03T00:11:32.518Z,10.30
2022-12-03T00:13:59.944Z,11.15
2022-12-03T00:16:27.753Z,13.88
2022-12-03T00:18:56.743Z,12.38
2022-12-03T00:21:24.913Z,12.52
2022-12-03T00:23:52.656Z,11.05
2022-12-03T00:26:20.633Z,11.13
2022-12-03T00:28:48.145Z,9.00
2022-12-03T00:31:15.964Z,12.68
2022-12-03T00:33:43.607Z,12.57
2022-12-03T00:36:12.704Z,11.10
2022-12-03T00:38:40.213Z,12.40
2022-12-03T00:41:08.213Z,11.25
2022-12-03T00:43:35.445Z,10.27
2022-12-03T00:46:03.257Z,12.93
2022-12-03T00:48:30.712Z,9.30
2022-12-03T00:51:01.527Z,12.77
2022-12-03T00:53:30.303Z,12.18
2022-12-03T00:55:58.094Z,13.35
2022-12-03T00:58:25.694Z,10.32
2022-12-03T01:00:53.502Z,12.45
2022-12-03T01:03:20.903Z,10.15
2022-12-03T01:05:48.715Z,10.60
2022-12-03T01:08:16.161Z,12.95
2022-12-03T01:10:45.708Z,11.45
2022-12-03T01:13:13.304Z,9.90
2022-12-03T01:15:41.192Z,9.27
2022-12-03T01:18:08.794Z,13.13
2022-12-03T01:20:36.513Z,9.73
2022-12-03T01:23:03.724Z,15.20
2022-12-03T01:25:31.431Z,10.45
2022-12-03T01:28:00.134Z,13.40
2022-12-03T01:30:28.166Z,10.98
2022-12-03T01:32:55.480Z,9.30
2022-12-03T01:35:23.335Z,9.73
2022-12-03T01:37:50.569Z,10.13
2022-12-03T01:40:20.736Z,13.07
2022-12-03T01:42:48.260Z,12.32
2022-12-03T01:45:23.209Z,8.95
2022-12-03T01:47:51.136Z,13.43
2022-12-03T01:50:23.098Z,13.75
2022-12-03T01:52:51.057Z,11.13
2022-12-03T01:55:21.235Z,12.82
2022-12-03T01:57:51.848Z,12.02
2022-12-03T02:02:54.161Z,12.55
2022-12-03T02:05:24.207Z,12.88
2022-12-03T02:07:51.699Z,10.65
2022-12-03T02:10:22.775Z,13.52
2022-12-03T02:12:55.073Z,13.10
2022-12-03T02:15:23.070Z,12.77
2022-12-03T02:17:52.101Z,8.80
2022-12-03T02:20:20.188Z,13.98
2022-12-03T02:22:55.237Z,12.55
2022-12-03T02:25:27.343Z,10.93
2022-12-03T02:27:55.361Z,6.68
2022-12-03T02:30:26.042Z,12.50
2022-12-03T02:32:54.688Z,13.55
2022-12-03T02:35:24.713Z,15.38
2022-12-03T02:37:54.763Z,9.90
2022-12-03T02:40:27.602Z,13.00
2022-12-03T02:42:58.239Z,12.25
2022-12-03T02:45:28.757Z,14.00
2022-12-03T02:47:59.306Z,13.05
2022-12-03T02:50:30.672Z,12.70
2022-12-03T02:53:01.076Z,12.20
2022-12-03T02:55:36.751Z,12.18
2022-12-03T02:58:05.082Z,11.30
2022-12-03T03:00:33.987Z,12.60
2022-12-03T03:03:02.207Z,13.13
2022-12-03T03:05:31.076Z,11.63
2022-12-03T03:07:59.600Z,13.20
2022-12-03T03:10:29.137Z,11.82
2022-12-03T03:12:58.649Z,12.50
2022-12-03T03:15:26.243Z,7.53
2022-12-03T03:17:53.712Z,13.55
2022-12-03T03:20:21.594Z,13.70
2022-12-03T03:22:48.870Z,14.43
2022-12-03T03:25:19.726Z,12.73
2022-12-03T03:27:47.436Z,11.52
2022-12-03T03:30:17.209Z,11.98
2022-12-03T03:32:44.444Z,14.05
2022-12-03T03:35:12.477Z,12.55
2022-12-03T03:37:39.838Z,14.63
2022-12-03T03:40:08.714Z,13.15
2022-12-03T03:42:37.022Z,11.68
2022-12-03T03:45:06.413Z,13.93
2022-12-03T03:47:35.233Z,10.93
2022-12-03T03:50:03.336Z,14.88
2022-12-03T03:52:30.708Z,14.57
2022-12-03T03:54:59.143Z,12.77
2022-12-03T03:57:26.413Z,15.50
2022-12-03T03:59:54.234Z,15.27
2022-12-03T04:02:24.563Z,7.30
2022-12-03T04:04:54.360Z,15.45
2022-12-03T04:07:21.843Z,9.48
2022-12-03T04:09:49.423Z,13.52
2022-12-03T04:12:19.184Z,12.45
2022-12-03T04:14:47.169Z,11.93
2022-12-03T04:17:14.403Z,11.70
2022-12-03T04:19:42.417Z,13.07
2022-12-03T04:22:11.101Z,13.07
2022-12-03T04:24:38.902Z,14.45
2022-12-03T04:27:06.287Z,13.80
2022-12-03T04:29:33.950Z,11.23
2022-12-03T04:32:01.225Z,14.07
2022-12-03T04:34:28.976Z,12.98
2022-12-03T04:36:56.578Z,13.52
2022-12-03T04:39:25.700Z,13.05
2022-12-03T04:41:53.355Z,15.93
2022-12-03T04:44:21.413Z,13.02
2022-12-03T04:46:48.531Z,14.98
2022-12-03T04:49:16.662Z,12.65
2022-12-03T04:51:44.247Z,11.20
2022-12-03T04:54:11.932Z,10.93
2022-12-03T04:56:44.016Z,13.90
2022-12-03T04:59:16.011Z,11.25
2022-12-03T05:01:45.118Z,10.05
2022-12-03T05:04:14.010Z,13.95
2022-12-03T05:06:42.445Z,14.00
2022-12-03T05:09:11.117Z,11.13
2022-12-03T05:11:38.694Z,12.95
2022-12-03T05:14:09.918Z,12.38
2022-12-03T05:16:37.415Z,12.93
2022-12-03T05:19:07.797Z,13.43
2022-12-03T05:21:35.657Z,14.80
2022-12-03T05:24:03.711Z,13.23
2022-12-03T05:26:31.229Z,14.15
2022-12-03T05:28:59.189Z,14.07
2022-12-03T05:31:27.999Z,13.10
2022-12-03T05:33:56.322Z,13.48
2022-12-03T05:36:23.554Z,13.18
2022-12-03T05:38:51.312Z,12.63
2022-12-03T05:41:18.618Z,9.00
2022-12-03T05:43:46.413Z,14.30
2022-12-03T05:46:13.692Z,12.70
2022-12-03T05:48:44.017Z,13.80
2022-12-03T05:51:11.324Z,12.23
2022-12-03T05:53:39.107Z,11.30
2022-12-03T05:56:07.132Z,13.02
2022-12-03T05:58:35.274Z,9.52
2022-12-03T06:01:02.598Z,9.75
2022-12-03T06:03:31.036Z,13.48
2022-12-03T06:06:00.006Z,13.70
2022-12-03T06:08:28.162Z,11.60
2022-12-03T06:10:55.481Z,11.88
2022-12-03T06:13:23.444Z,14.27
2022-12-03T06:15:51.007Z,13.77
2022-12-03T06:18:19.062Z,14.60
2022-12-03T06:20:46.370Z,12.75
2022-12-03T06:23:15.571Z,10.35
2022-12-03T06:25:42.859Z,14.07
2022-12-03T06:28:10.684Z,12.18
2022-12-03T06:30:37.973Z,15.30
2022-12-03T06:33:05.743Z,13.30
2022-12-03T06:35:33.066Z,14.65
2022-12-03T06:38:01.211Z,14.50
2022-12-03T06:40:30.162Z,13.45
2022-12-03T06:42:57.932Z,18.17
2022-12-03T06:45:25.505Z,16.40
2022-12-03T06:47:53.309Z,15.90
2022-12-03T06:50:20.954Z,14.43
2022-12-03T06:52:48.869Z,14.63
2022-12-03T06:55:16.390Z,14.93
2022-12-03T06:57:45.656Z,14.05
2022-12-03T07:00:14.031Z,14.27
2022-12-03T07:02:42.005Z,13.10
2022-12-03T07:05:09.799Z,14.95
2022-12-03T07:07:37.896Z,15.65
2022-12-03T07:10:06.631Z,17.05
2022-12-03T07:12:34.459Z,15.38
2022-12-03T07:15:03.213Z,12.75
2022-12-03T07:17:30.939Z,15.70
2022-12-03T07:19:58.321Z,16.73
2022-12-03T07:22:25.978Z,15.32
2022-12-03T07:24:53.645Z,18.58
2022-12-03T07:27:21.634Z,13.18
2022-12-03T07:29:49.012Z,14.98
2022-12-03T07:32:18.259Z,13.23
2022-12-03T07:34:45.432Z,16.13
2022-12-03T07:37:13.140Z,17.48
2022-12-03T07:39:40.478Z,14.13
2022-12-03T07:42:08.319Z,15.95
2022-12-03T07:44:35.685Z,12.15
2022-12-03T07:47:03.497Z,13.85
2022-12-03T07:49:32.315Z,14.55
2022-12-03T07:52:00.385Z,14.25
2022-12-03T07:54:27.653Z,16.23
2022-12-03T07:57:00.948Z,17.48
2022-12-03T07:59:28.985Z,16.98
2022-12-03T08:01:57.142Z,15.13
2022-12-03T08:04:24.639Z,13.23
2022-12-03T08:06:53.900Z,12.88
2022-12-03T08:09:21.264Z,11.18
2022-12-03T08:11:49.743Z,14.00
2022-12-03T08:14:18.233Z,14.15
2022-12-03T08:16:47.689Z,13.35
2022-12-03T08:19:16.499Z,16.52
2022-12-03T08:21:45.146Z,15.88
2022-12-03T08:24:16.560Z,13.82
2022-12-03T08:26:46.328Z,16.90
2022-12-03T08:29:16.324Z,15.75
2022-12-03T08:31:48.166Z,14.50
2022-12-03T08:34:20.567Z,12.13
2022-12-03T08:36:51.279Z,15.02
2022-12-03T08:39:41.574Z,17.33
2022-12-03T08:42:14.114Z,9.48
2022-12-03T08:44:41.502Z,11.68
2022-12-03T08:47:16.762Z,13.82
2022-12-03T08:49:51.386Z,10.77
2022-12-03T08:52:21.299Z,13.55
2022-12-03T08:54:53.116Z,13.77
2022-12-03T08:57:28.031Z,13.30
2022-12-03T08:59:58.659Z,13.27
2022-12-03T09:02:31.359Z,13.40
2022-12-03T09:04:59.664Z,14.85
2022-12-03T09:07:27.873Z,10.77
2022-12-03T09:09:56.704Z,14.85
2022-12-03T09:12:24.370Z,15.73
2022-12-03T09:14:52.000Z,16.58
2022-12-03T09:17:20.093Z,14.60
2022-12-03T09:19:47.508Z,18.58
2022-12-03T09:22:15.291Z,15.02
2022-12-03T09:24:42.554Z,16.77
2022-12-03T09:27:11.964Z,18.15
2022-12-03T09:29:39.267Z,16.50
2022-12-03T09:32:07.224Z,21.48
2022-12-03T09:34:34.611Z,19.88
2022-12-03T09:37:02.732Z,15.48
2022-12-03T09:39:29.982Z,13.95
2022-12-03T09:41:57.986Z,18.40
2022-12-03T09:44:29.558Z,21.02
2022-12-03T09:46:57.428Z,18.92
2022-12-03T09:49:24.959Z,22.98
2022-12-03T09:51:56.614Z,21.02
2022-12-03T09:54:26.836Z,17.70
2022-12-03T09:56:56.860Z,19.50
2022-12-03T09:59:30.145Z,18.17
2022-12-03T10:01:58.505Z,19.13
2022-12-03T10:04:27.318Z,17.23
2022-12-03T10:06:57.742Z,17.80
2022-12-03T10:09:27.824Z,19.83
2022-12-03T10:11:56.922Z,19.90
2022-12-03T10:14:24.679Z,15.52
2022-12-03T10:16:54.852Z,20.77
2022-12-03T10:19:24.641Z,20.58
2022-12-03T10:21:52.420Z,18.63
2022-12-03T10:24:25.793Z,17.25
2022-12-03T10:26:55.784Z,19.55
2022-12-03T10:29:29.934Z,18.90
2022-12-03T10:32:05.628Z,24.13
2022-12-03T10:34:34.849Z,17.35
2022-12-03T10:37:14.428Z,18.88
2022-12-03T10:39:57.197Z,9.02
2022-12-03T10:42:26.696Z,24.50
2022-12-03T10:45:14.362Z,17.23
2022-12-03T10:47:45.036Z,17.77
2022-12-03T10:50:17.636Z,17.92
2022-12-03T10:52:46.550Z,22.52
2022-12-03T10:55:14.946Z,16.33
2022-12-03T10:57:45.860Z,23.73
2022-12-03T11:00:16.471Z,19.60
2022-12-03T11:02:53.082Z,19.73
2022-12-03T11:05:25.571Z,21.33
2022-12-03T11:07:53.797Z,19.15
2022-12-03T11:10:21.735Z,13.52
2022-12-03T11:13:22.605Z,18.35
2022-12-03T11:15:50.093Z,16.63
2022-12-03T11:18:51.606Z,21.33
2022-12-03T11:21:20.393Z,13.23
2022-12-03T11:24:17.745Z,13.63
2022-12-03T11:27:27.674Z,23.02
2022-12-03T11:29:59.976Z,20.83
2022-12-03T11:33:05.403Z,16.52
2022-12-03T11:36:16.695Z,25.15
2022-12-03T11:38:56.632Z,24.40
2022-12-03T11:41:31.184Z,17.13
2022-12-03T11:44:29.874Z,16.88
2022-12-03T11:47:08.560Z,19.08
2022-12-03T11:49:39.393Z,23.75
2022-12-03T11:52:27.305Z,19.13
2022-12-03T11:54:59.671Z,19.67
2022-12-03T11:57:33.896Z,18.50
2022-12-03T12:00:05.870Z,18.33
2022-12-03T12:02:34.137Z,15.80
2022-12-03T12:05:16.629Z,24.70
2022-12-03T12:07:44.475Z,23.17
2022-12-03T12:10:13.894Z,21.90
2022-12-03T12:12:47.224Z,15.50
2022-12-03T12:15:42.419Z,20.35
2022-12-03T12:18:39.611Z,21.70
2022-12-03T12:21:44.508Z,20.65
2022-12-03T12:24:36.480Z,21.75
2022-12-03T12:27:07.429Z,16.05
2022-12-03T12:29:35.984Z,18.45
2022-12-03T12:32:13.091Z,24.30
2022-12-03T12:34:42.237Z,19.80
2022-12-03T12:37:12.230Z,18.33
2022-12-03T12:39:40.891Z,26.33
2022-12-03T12:42:28.992Z,25.40
2022-12-03T12:45:09.349Z,23.35
2022-12-03T12:47:36.732Z,22.60
2022-12-03T12:50:10.872Z,20.70
2022-12-03T12:52:47.183Z,22.38
2022-12-03T12:55:15.158Z,22.30
2022-12-03T12:57:44.395Z,25.77
2022-12-03T13:00:15.668Z,24.75
2022-12-03T13:02:48.917Z,25.20
2022-12-03T13:05:17.832Z,20.90
2022-12-03T13:07:45.760Z,23.17
2022-12-03T13:10:35.939Z,21.60
2022-12-03T13:13:15.672Z,23.20
2022-12-03T13:15:50.893Z,20.98
2022-12-03T13:18:29.369Z,25.38
2022-12-03T13:20:57.438Z,16.92
2022-12-03T13:23:32.740Z,23.08
2022-12-03T13:26:17.342Z,27.30
2022-12-03T13:28:52.551Z,26.20
2022-12-03T13:31:26.835Z,16.70
2022-12-03T13:33:55.475Z,23.00
2022-12-03T13:36:35.856Z,22.38
2022-12-03T13:39:13.020Z,25.65
2022-12-03T13:41:42.527Z,20.67
2022-12-03T13:44:29.934Z,25.48
2022-12-03T13:47:00.953Z,27.10
2022-12-03T13:49:30.078Z,27.67
2022-12-03T13:51:57.832Z,25.52
2022-12-03T13:54:30.706Z,28.52
2022-12-03T13:56:58.512Z,23.27
2022-12-03T13:59:27.546Z,25.15
2022-12-03T14:01:55.723Z,28.85
2022-12-03T14:04:23.225Z,28.77
2022-12-03T14:06:51.375Z,25.02
2022-12-03T14:09:19.327Z,30.25
2022-12-03T14:11:47.316Z,25.42
2022-12-03T14:14:15.169Z,19.30
2022-12-03T14:16:44.786Z,25.20
2022-12-03T14:19:12.459Z,26.85
2022-12-03T14:21:40.843Z,24.25
2022-12-03T14:24:08.722Z,29.73
2022-12-03T14:26:36.985Z,27.90
2022-12-03T14:29:08.611Z,30.65
2022-12-03T14:31:37.214Z,25.25
2022-12-03T14:34:06.365Z,24.90
2022-12-03T14:36:34.279Z,26.90
2022-12-03T14:39:01.850Z,28.60
2022-12-03T14:41:30.256Z,29.77
2022-12-03T14:43:57.906Z,31.13
2022-12-03T14:46:26.509Z,30.08
2022-12-03T14:48:54.057Z,29.33
2022-12-03T14:51:23.738Z,24.10
2022-12-03T14:53:51.556Z,28.23
2022-12-03T14:56:19.840Z,28.23
2022-12-03T14:58:47.690Z,26.77
2022-12-03T15:01:16.148Z,23.65
2022-12-03T15:03:43.773Z,26.63
2022-12-03T15:06:12.101Z,27.73
2022-12-03T15:08:41.052Z,28.42
2022-12-03T15:11:09.411Z,27.50
2022-12-03T15:13:36.943Z,29.88
2022-12-03T15:16:05.890Z,29.23
2022-12-03T15:18:33.503Z,29.08
2022-12-03T15:21:02.009Z,28.10
2022-12-03T15:23:29.359Z,23.95
2022-12-03T15:25:59.317Z,29.40
2022-12-03T15:28:26.878Z,28.30
2022-12-03T15:30:55.131Z,25.88
2022-12-03T15:33:22.479Z,29.98
2022-12-03T15:35:50.243Z,24.77
2022-12-03T15:38:17.848Z,21.13
2022-12-03T15:40:45.747Z,26.45
2022-12-03T15:43:14.984Z,25.00
2022-12-03T15:45:43.093Z,23.33
2022-12-03T15:48:10.491Z,27.08
2022-12-03T15:50:41.897Z,22.55
2022-12-03T15:53:09.517Z,24.45
2022-12-03T15:55:37.419Z,25.33
2022-12-03T15:58:04.791Z,24.30
2022-12-03T16:00:33.973Z,24.58
2022-12-03T16:03:01.567Z,21.20
2022-12-03T16:05:29.468Z,23.15
2022-12-03T16:07:56.916Z,22.05
2022-12-03T16:10:24.873Z,21.80
2022-12-03T16:12:52.299Z,23.27
2022-12-03T16:15:29.728Z,22.13
2022-12-03T16:17:58.782Z,23.05
2022-12-03T16:20:26.805Z,22.02
2022-12-03T16:22:54.216Z,20.38
2022-12-03T16:25:21.895Z,22.38
2022-12-03T16:27:49.361Z,22.58
2022-12-03T16:30:17.817Z,21.67
2022-12-03T16:32:45.421Z,20.63
2022-12-03T16:35:15.188Z,17.40
2022-12-03T16:37:42.865Z,20.00
2022-12-03T16:40:11.926Z,22.10
2022-12-03T16:42:39.445Z,20.88
2022-12-03T16:45:08.954Z,20.52
2022-12-03T16:47:36.944Z,19.08
2022-12-03T16:50:07.474Z,22.25
2022-12-03T16:52:36.583Z,20.23
2022-12-03T16:55:05.353Z,22.88
2022-12-03T16:57:34.067Z,21.00
2022-12-03T17:00:02.232Z,22.00
2022-12-03T17:02:29.987Z,20.23
2022-12-03T17:04:58.098Z,20.33
2022-12-03T17:07:25.731Z,16.55
2022-12-03T17:09:55.968Z,22.52
2022-12-03T17:12:25.453Z,16.92
2022-12-03T17:14:53.993Z,21.25
2022-12-03T17:17:23.869Z,22.98
2022-12-03T17:19:55.067Z,22.55
2022-12-03T17:22:22.598Z,23.17
2022-12-03T17:24:53.040Z,22.33
2022-12-03T17:27:22.317Z,23.33
2022-12-03T17:29:50.580Z,24.15
2022-12-03T17:32:18.162Z,22.77
2022-12-03T17:34:45.972Z,24.48
2022-12-03T17:37:13.427Z,24.17
2022-12-03T17:39:41.124Z,25.20
2022-12-03T17:42:08.618Z,21.63
2022-12-03T17:44:38.155Z,25.40
2022-12-03T17:47:06.075Z,24.30
2022-12-03T17:49:35.230Z,21.70
2022-12-03T17:52:02.912Z,24.35
2022-12-03T17:54:55.299Z,24.27
2022-12-03T17:57:18.784Z,25.02
2022-12-03T17:59:48.297Z,21.80
2022-12-03T18:02:15.926Z,12.80
2022-12-03T18:04:44.150Z,18.77
2022-12-03T18:07:12.300Z,23.23
2022-12-03T18:09:40.081Z,22.77
2022-12-03T18:12:08.208Z,19.42
2022-12-03T18:14:36.543Z,25.35
2022-12-03T18:17:05.696Z,21.20
2022-12-03T18:19:33.373Z,21.10
2022-12-03T18:22:00.789Z,26.20
2022-12-03T18:24:28.711Z,25.02
2022-12-03T18:26:56.188Z,26.40
2022-12-03T18:29:24.473Z,26.25
2022-12-03T18:31:52.025Z,26.48
2022-12-03T18:34:21.545Z,25.08
2022-12-03T18:36:54.136Z,22.25
2022-12-03T18:39:26.379Z,27.02
2022-12-03T18:41:54.159Z,24.65
2022-12-03T18:44:22.014Z,23.85
2022-12-03T18:46:54.137Z,22.52
2022-12-03T18:51:56.026Z,17.08
2022-12-03T18:54:27.098Z,26.63
2022-12-03T18:56:54.599Z,23.63
2022-12-03T18:59:22.701Z,28.38
2022-12-03T19:01:50.064Z,24.92
2022-12-03T19:04:18.302Z,23.77
2022-12-03T19:06:47.689Z,27.15
2022-12-03T19:09:16.108Z,20.35
2022-12-03T19:11:44.912Z,24.27
2022-12-03T19:14:13.684Z,24.85
2022-12-03T19:16:42.553Z,23.05
2022-12-03T19:19:11.033Z,28.75
2022-12-03T19:21:38.694Z,23.50
2022-12-03T19:24:25.457Z,24.67
2022-12-03T19:26:53.672Z,23.20
2022-12-03T19:29:22.775Z,24.83
2022-12-03T19:31:50.788Z,23.27
2022-12-03T19:34:19.594Z,25.10
2022-12-03T19:36:47.583Z,21.33
2022-12-03T19:39:17.425Z,20.20
2022-12-03T19:41:45.106Z,25.33
2022-12-03T19:44:14.318Z,25.33
2022-12-03T19:46:42.392Z,28.65
2022-12-03T19:49:11.496Z,22.58
2022-12-03T19:51:39.469Z,25.65
2022-12-03T19:54:11.350Z,26.75
2022-12-03T19:56:40.308Z,23.67
2022-12-03T19:59:08.237Z,24.25
2022-12-03T20:01:36.150Z,28.40
2022-12-03T20:04:04.666Z,22.67
2022-12-03T20:06:35.123Z,23.05
2022-12-03T20:09:06.807Z,28.90
2022-12-03T20:11:35.462Z,22.17
2022-12-03T20:14:06.592Z,31.80
2022-12-03T20:16:35.833Z,28.42
2022-12-03T20:19:06.348Z,30.08
2022-12-03T20:21:36.622Z,33.88
2022-12-03T20:24:05.841Z,32.78
2022-12-03T20:26:34.185Z,28.38
2022-12-03T20:29:06.007Z,24.55
2022-12-03T20:31:35.377Z,30.73
2022-12-03T20:34:04.568Z,24.48
2022-12-03T20:36:32.989Z,32.60
2022-12-03T20:39:02.710Z,36.45
2022-12-03T20:41:30.544Z,37.85
2022-12-03T20:43:58.326Z,41.45
2022-12-03T20:46:27.811Z,38.28
2022-12-03T20:48:58.250Z,32.35
2022-12-03T20:51:28.182Z,33.80
2022-12-03T20:53:56.385Z,35.15
2022-12-03T20:56:26.392Z,41.30
2022-12-03T20:58:54.469Z,35.22
2022-12-03T21:01:23.833Z,32.95
2022-12-03T21:03:53.427Z,41.63
2022-12-03T21:06:24.144Z,36.55
2022-12-03T21:08:53.295Z,39.40
2022-12-03T21:11:23.048Z,39.92
2022-12-03T21:13:51.207Z,44.42
2022-12-03T21:16:39.294Z,44.60
2022-12-03T21:19:09.727Z,40.28
2022-12-03T21:21:38.478Z,40.92
2022-12-03T21:24:07.223Z,38.92
2022-12-03T21:26:34.764Z,41.45
2022-12-03T21:29:02.600Z,37.83
2022-12-03T21:31:30.113Z,35.78
2022-12-03T21:33:58.293Z,45.22
2022-12-03T21:36:26.031Z,40.95
2022-12-03T21:38:55.377Z,38.25
2022-12-03T21:41:22.767Z,35.75
2022-12-03T21:43:50.739Z,22.58
2022-12-03T21:47:09.509Z,35.40
2022-12-03T21:49:06.158Z,37.42
2022-12-03T21:51:33.782Z,28.15
2022-12-03T21:54:04.230Z,38.60
2022-12-03T21:56:31.785Z,36.90
2022-12-03T21:58:59.726Z,44.90
2022-12-03T22:01:27.477Z,37.85
2022-12-03T22:03:55.827Z,32.28
2022-12-03T22:06:23.489Z,31.67
2022-12-03T22:08:51.241Z,34.50
2022-12-03T22:11:22.144Z,31.67
2022-12-03T22:13:51.368Z,32.38
2022-12-03T22:16:21.246Z,34.78
2022-12-03T22:18:49.905Z,20.23
2022-12-03T22:21:19.022Z,25.15
2022-12-03T22:23:47.151Z,37.25
2022-12-03T22:26:16.913Z,38.53
2022-12-03T22:28:48.627Z,33.95
2022-12-03T22:31:17.629Z,38.50
2022-12-03T22:33:45.589Z,36.05
2022-12-03T22:36:20.007Z,35.10
2022-12-03T22:38:48.792Z,38.97
2022-12-03T22:41:16.320Z,37.38
2022-12-03T22:43:47.015Z,34.55
2022-12-03T22:46:14.953Z,36.67
2022-12-03T22:48:44.645Z,37.00
2022-12-03T22:51:13.238Z,28.67
2022-12-03T22:53:41.124Z,39.88
2022-12-03T22:56:08.880Z,33.47
2022-12-03T22:58:38.281Z,33.88
2022-12-03T23:01:07.943Z,26.25
2022-12-03T23:03:36.780Z,32.55
2022-12-03T23:06:09.864Z,38.63
2022-12-03T23:08:37.746Z,31.30
2022-12-03T23:11:05.385Z,36.60
2022-12-03T23:13:33.293Z,37.30
2022-12-03T23:16:00.563Z,30.83
2022-12-03T23:18:30.137Z,35.63
2022-12-03T23:20:57.787Z,37.67
2022-12-03T23:23:27.735Z,37.97
2022-12-03T23:25:59.100Z,37.50
2022-12-03T23:28:28.385Z,35.95
2022-12-03T23:30:56.030Z,29.80
2022-12-03T23:33:24.566Z,40.28
2022-12-03T23:35:54.018Z,36.88
2022-12-03T23:38:21.882Z,40.70
2022-12-03T23:40:49.795Z,39.70
2022-12-03T23:43:17.737Z,28.15
2022-12-03T23:45:45.228Z,36.08
2022-12-03T23:48:13.174Z,29.35
2022-12-03T23:50:40.809Z,28.25
2022-12-03T23:53:10.610Z,36.55
2022-12-03T23:55:39.880Z,41.58
2022-12-03T23:58:07.963Z,37.35
